sensor_id;sensor_type;location;lat;lon;timestamp;temperature;humidity
24452;DHT22;13350;50.984;5.822;2024-01-11T00:02:08;-6.20;99.90
24452;DHT22;13350;50.984;5.822;2024-01-11T00:04:35;-6.20;99.90
24452;DHT22;13350;50.984;5.822;2024-01-11T00:07:02;-6.30;99.90
24452;DHT22;13350;50.984;5.822;2024-01-11T00:09:29;-6.30;99.90
24452;DHT22;13350;50.984;5.822;2024-01-11T00:11:56;-6.20;99.90
24452;DHT22;13350;50.984;5.822;2024-01-11T00:14:24;-6.20;99.90
24452;DHT22;13350;50.984;5.822;2024-01-11T00:16:51;-6.20;99.90
24452;DHT22;13350;50.984;5.822;2024-01-11T00:19:18;-6.10;99.90
24452;DHT22;13350;50.984;5.822;2024-01-11T00:21:45;-6.00;99.90
24452;DHT22;13350;50.984;5.822;2024-01-11T00:24:12;-5.80;99.90
24452;DHT22;13350;50.984;5.822;2024-01-11T00:26:39;-5.80;99.90
24452;DHT22;13350;50.984;5.822;2024-01-11T00:29:07;-5.80;99.90
24452;DHT22;13350;50.984;5.822;2024-01-11T00:31:35;-5.90;99.90
24452;DHT22;13350;50.984;5.822;2024-01-11T00:34:02;-6.00;99.90
24452;DHT22;13350;50.984;5.822;2024-01-11T00:36:29;-6.10;99.90
24452;DHT22;13350;50.984;5.822;2024-01-11T00:38:58;-6.10;99.90
24452;DHT22;13350;50.984;5.822;2024-01-11T00:41:25;-6.10;99.90
24452;DHT22;13350;50.984;5.822;2024-01-11T00:43:52;-6.10;99.90
24452;DHT22;13350;50.984;5.822;2024-01-11T00:46:19;-6.10;99.90
24452;DHT22;13350;50.984;5.822;2024-01-11T00:48:47;-6.00;99.90
24452;DHT22;13350;50.984;5.822;2024-01-11T00:51:14;-6.10;99.90
24452;DHT22;13350;50.984;5.822;2024-01-11T00:53:41;-6.20;99.90
24452;DHT22;13350;50.984;5.822;2024-01-11T00:56:14;-6.30;99.90
24452;DHT22;13350;50.984;5.822;2024-01-11T00:58:41;-6.30;99.90
24452;DHT22;13350;50.984;5.822;2024-01-11T01:01:09;-6.30;99.90
24452;DHT22;13350;50.984;5.822;2024-01-11T01:03:36;-6.20;99.90
24452;DHT22;13350;50.984;5.822;2024-01-11T01:06:04;-6.30;99.90
24452;DHT22;13350;50.984;5.822;2024-01-11T01:08:31;-6.50;99.90
24452;DHT22;13350;50.984;5.822;2024-01-11T01:10:58;-6.70;99.90
24452;DHT22;13350;50.984;5.822;2024-01-11T01:13:25;-6.80;99.90
24452;DHT22;13350;50.984;5.822;2024-01-11T01:15:52;-6.70;99.90
24452;DHT22;13350;50.984;5.822;2024-01-11T01:18:19;-6.50;99.90
24452;DHT22;13350;50.984;5.822;2024-01-11T01:20:46;-6.50;99.90
24452;DHT22;13350;50.984;5.822;2024-01-11T01:23:14;-6.50;99.90
24452;DHT22;13350;50.984;5.822;2024-01-11T01:25:42;-6.60;99.90
24452;DHT22;13350;50.984;5.822;2024-01-11T01:28:08;-6.60;99.90
24452;DHT22;13350;50.984;5.822;2024-01-11T01:30:36;-6.50;99.90
24452;DHT22;13350;50.984;5.822;2024-01-11T01:33:03;-6.50;99.90
24452;DHT22;13350;50.984;5.822;2024-01-11T01:35:30;-6.60;99.90
24452;DHT22;13350;50.984;5.822;2024-01-11T01:37:57;-6.60;99.90
24452;DHT22;13350;50.984;5.822;2024-01-11T01:40:25;-6.50;99.90
24452;DHT22;13350;50.984;5.822;2024-01-11T01:42:57;-6.60;99.90
24452;DHT22;13350;50.984;5.822;2024-01-11T01:45:25;-6.60;99.90
24452;DHT22;13350;50.984;5.822;2024-01-11T01:47:52;-6.70;99.90
24452;DHT22;13350;50.984;5.822;2024-01-11T01:50:20;-6.90;99.90
24452;DHT22;13350;50.984;5.822;2024-01-11T01:52:47;-7.10;99.90
24452;DHT22;13350;50.984;5.822;2024-01-11T01:55:15;-7.20;99.90
24452;DHT22;13350;50.984;5.822;2024-01-11T01:57:43;-7.30;99.90
24452;DHT22;13350;50.984;5.822;2024-01-11T02:00:11;-7.40;99.90
24452;DHT22;13350;50.984;5.822;2024-01-11T02:02:39;-7.40;99.90
24452;DHT22;13350;50.984;5.822;2024-01-11T02:05:06;-7.40;99.90
24452;DHT22;13350;50.984;5.822;2024-01-11T02:07:34;-7.20;99.90
24452;DHT22;13350;50.984;5.822;2024-01-11T02:10:01;-7.30;99.90
24452;DHT22;13350;50.984;5.822;2024-01-11T02:12:29;-7.30;99.90
24452;DHT22;13350;50.984;5.822;2024-01-11T02:14:57;-7.40;99.90
24452;DHT22;13350;50.984;5.822;2024-01-11T02:17:24;-7.50;99.90
24452;DHT22;13350;50.984;5.822;2024-01-11T02:19:52;-7.60;99.90
24452;DHT22;13350;50.984;5.822;2024-01-11T02:22:20;-7.50;99.90
24452;DHT22;13350;50.984;5.822;2024-01-11T02:24:50;-7.30;99.90
24452;DHT22;13350;50.984;5.822;2024-01-11T02:27:18;-7.10;99.90
24452;DHT22;13350;50.984;5.822;2024-01-11T02:29:45;-7.20;99.90
24452;DHT22;13350;50.984;5.822;2024-01-11T02:32:12;-7.20;99.90
24452;DHT22;13350;50.984;5.822;2024-01-11T02:34:39;-7.30;99.90
24452;DHT22;13350;50.984;5.822;2024-01-11T02:37:06;-7.30;99.90
24452;DHT22;13350;50.984;5.822;2024-01-11T02:39:34;-7.30;99.90
24452;DHT22;13350;50.984;5.822;2024-01-11T02:42:02;-7.40;99.90
24452;DHT22;13350;50.984;5.822;2024-01-11T02:44:29;-7.30;99.90
24452;DHT22;13350;50.984;5.822;2024-01-11T02:46:56;-7.40;99.90
24452;DHT22;13350;50.984;5.822;2024-01-11T02:49:23;-7.30;99.90
24452;DHT22;13350;50.984;5.822;2024-01-11T02:51:50;-7.40;99.90
24452;DHT22;13350;50.984;5.822;2024-01-11T02:54:17;-7.40;99.90
24452;DHT22;13350;50.984;5.822;2024-01-11T02:56:44;-7.40;99.90
24452;DHT22;13350;50.984;5.822;2024-01-11T02:59:12;-7.40;99.90
24452;DHT22;13350;50.984;5.822;2024-01-11T03:01:39;-7.40;99.90
24452;DHT22;13350;50.984;5.822;2024-01-11T03:04:06;-7.30;99.90
24452;DHT22;13350;50.984;5.822;2024-01-11T03:06:33;-7.50;99.90
24452;DHT22;13350;50.984;5.822;2024-01-11T03:09:00;-7.60;99.90
24452;DHT22;13350;50.984;5.822;2024-01-11T03:11:27;-7.50;99.90
24452;DHT22;13350;50.984;5.822;2024-01-11T03:13:54;-7.30;99.90
24452;DHT22;13350;50.984;5.822;2024-01-11T03:16:22;-7.20;99.90
24452;DHT22;13350;50.984;5.822;2024-01-11T03:18:49;-7.20;99.90
24452;DHT22;13350;50.984;5.822;2024-01-11T03:21:16;-7.20;99.90
24452;DHT22;13350;50.984;5.822;2024-01-11T03:23:43;-7.30;99.90
24452;DHT22;13350;50.984;5.822;2024-01-11T03:26:13;-7.10;99.90
24452;DHT22;13350;50.984;5.822;2024-01-11T03:28:40;-6.90;99.90
24452;DHT22;13350;50.984;5.822;2024-01-11T03:31:07;-6.80;99.90
24452;DHT22;13350;50.984;5.822;2024-01-11T03:33:36;-6.80;99.90
24452;DHT22;13350;50.984;5.822;2024-01-11T03:36:06;-6.90;99.90
24452;DHT22;13350;50.984;5.822;2024-01-11T03:38:33;-7.00;99.90
24452;DHT22;13350;50.984;5.822;2024-01-11T03:41:00;-6.90;99.90
24452;DHT22;13350;50.984;5.822;2024-01-11T03:43:27;-6.80;99.90
24452;DHT22;13350;50.984;5.822;2024-01-11T03:45:54;-6.90;99.90
24452;DHT22;13350;50.984;5.822;2024-01-11T03:48:20;-7.00;99.90
24452;DHT22;13350;50.984;5.822;2024-01-11T03:50:49;-7.10;99.90
24452;DHT22;13350;50.984;5.822;2024-01-11T03:53:16;-7.20;99.90
24452;DHT22;13350;50.984;5.822;2024-01-11T03:55:43;-7.20;99.90
24452;DHT22;13350;50.984;5.822;2024-01-11T03:58:10;-7.20;99.90
24452;DHT22;13350;50.984;5.822;2024-01-11T04:00:37;-7.10;99.90
24452;DHT22;13350;50.984;5.822;2024-01-11T04:03:05;-7.10;99.90
24452;DHT22;13350;50.984;5.822;2024-01-11T04:05:32;-7.10;99.90
24452;DHT22;13350;50.984;5.822;2024-01-11T04:08:02;-7.20;99.90
24452;DHT22;13350;50.984;5.822;2024-01-11T04:10:29;-7.20;99.90
24452;DHT22;13350;50.984;5.822;2024-01-11T04:12:56;-7.10;99.90
24452;DHT22;13350;50.984;5.822;2024-01-11T04:15:23;-7.10;99.90
24452;DHT22;13350;50.984;5.822;2024-01-11T04:17:50;-7.10;99.90
24452;DHT22;13350;50.984;5.822;2024-01-11T04:20:17;-7.00;99.90
24452;DHT22;13350;50.984;5.822;2024-01-11T04:22:44;-6.90;99.90
24452;DHT22;13350;50.984;5.822;2024-01-11T04:25:13;-6.80;99.90
24452;DHT22;13350;50.984;5.822;2024-01-11T04:27:40;-6.80;99.90
24452;DHT22;13350;50.984;5.822;2024-01-11T04:30:07;-6.80;99.90
24452;DHT22;13350;50.984;5.822;2024-01-11T04:32:34;-6.80;99.90
24452;DHT22;13350;50.984;5.822;2024-01-11T04:35:01;-6.70;99.90
24452;DHT22;13350;50.984;5.822;2024-01-11T04:37:28;-6.70;99.90
24452;DHT22;13350;50.984;5.822;2024-01-11T04:39:55;-6.70;99.90
24452;DHT22;13350;50.984;5.822;2024-01-11T04:42:27;-6.70;99.90
24452;DHT22;13350;50.984;5.822;2024-01-11T04:44:54;-6.70;99.90
24452;DHT22;13350;50.984;5.822;2024-01-11T04:47:21;-6.70;99.90
24452;DHT22;13350;50.984;5.822;2024-01-11T04:49:48;-6.60;99.90
24452;DHT22;13350;50.984;5.822;2024-01-11T04:52:15;-6.60;99.90
24452;DHT22;13350;50.984;5.822;2024-01-11T04:54:42;-6.60;99.90
24452;DHT22;13350;50.984;5.822;2024-01-11T04:57:09;-6.60;99.90
24452;DHT22;13350;50.984;5.822;2024-01-11T04:59:38;-6.60;99.90
24452;DHT22;13350;50.984;5.822;2024-01-11T05:02:05;-6.60;99.90
24452;DHT22;13350;50.984;5.822;2024-01-11T05:04:31;-6.40;99.90
24452;DHT22;13350;50.984;5.822;2024-01-11T05:06:58;-6.30;99.90
24452;DHT22;13350;50.984;5.822;2024-01-11T05:09:25;-6.30;99.90
24452;DHT22;13350;50.984;5.822;2024-01-11T05:11:52;-6.20;99.90
24452;DHT22;13350;50.984;5.822;2024-01-11T05:14:19;-6.20;99.90
24452;DHT22;13350;50.984;5.822;2024-01-11T05:16:48;-6.20;99.90
24452;DHT22;13350;50.984;5.822;2024-01-11T05:19:16;-6.10;99.90
24452;DHT22;13350;50.984;5.822;2024-01-11T05:21:43;-6.00;99.90
24452;DHT22;13350;50.984;5.822;2024-01-11T05:24:10;-6.00;99.90
24452;DHT22;13350;50.984;5.822;2024-01-11T05:26:37;-6.00;99.90
24452;DHT22;13350;50.984;5.822;2024-01-11T05:29:03;-6.00;99.90
24452;DHT22;13350;50.984;5.822;2024-01-11T05:31:31;-6.00;99.90
24452;DHT22;13350;50.984;5.822;2024-01-11T05:33:59;-5.90;99.90
24452;DHT22;13350;50.984;5.822;2024-01-11T05:36:26;-6.00;99.90
24452;DHT22;13350;50.984;5.822;2024-01-11T05:38:53;-6.00;99.90
24452;DHT22;13350;50.984;5.822;2024-01-11T05:41:20;-5.90;99.90
24452;DHT22;13350;50.984;5.822;2024-01-11T05:43:47;-6.00;99.90
24452;DHT22;13350;50.984;5.822;2024-01-11T05:46:14;-5.90;99.90
24452;DHT22;13350;50.984;5.822;2024-01-11T05:48:41;-6.00;99.90
24452;DHT22;13350;50.984;5.822;2024-01-11T05:51:10;-6.00;99.90
24452;DHT22;13350;50.984;5.822;2024-01-11T05:53:37;-6.00;99.90
24452;DHT22;13350;50.984;5.822;2024-01-11T05:56:06;-6.00;99.90
24452;DHT22;13350;50.984;5.822;2024-01-11T05:58:33;-5.90;99.90
24452;DHT22;13350;50.984;5.822;2024-01-11T06:01:02;-5.90;99.90
24452;DHT22;13350;50.984;5.822;2024-01-11T06:03:29;-6.00;99.90
24452;DHT22;13350;50.984;5.822;2024-01-11T06:05:59;-6.00;99.90
24452;DHT22;13350;50.984;5.822;2024-01-11T06:08:30;-5.90;99.90
24452;DHT22;13350;50.984;5.822;2024-01-11T06:10:57;-6.00;99.90
24452;DHT22;13350;50.984;5.822;2024-01-11T06:13:24;-6.10;99.90
24452;DHT22;13350;50.984;5.822;2024-01-11T06:15:51;-6.10;99.90
24452;DHT22;13350;50.984;5.822;2024-01-11T06:18:18;-6.10;99.90
24452;DHT22;13350;50.984;5.822;2024-01-11T06:20:45;-6.10;99.90
24452;DHT22;13350;50.984;5.822;2024-01-11T06:23:12;-6.30;99.90
24452;DHT22;13350;50.984;5.822;2024-01-11T06:25:40;-6.30;99.90
24452;DHT22;13350;50.984;5.822;2024-01-11T06:28:07;-6.40;99.90
24452;DHT22;13350;50.984;5.822;2024-01-11T06:30:35;-6.40;99.90
24452;DHT22;13350;50.984;5.822;2024-01-11T06:33:03;-6.30;99.90
24452;DHT22;13350;50.984;5.822;2024-01-11T06:35:30;-6.30;99.90
24452;DHT22;13350;50.984;5.822;2024-01-11T06:37:56;-6.40;99.90
24452;DHT22;13350;50.984;5.822;2024-01-11T06:40:24;-6.50;99.90
24452;DHT22;13350;50.984;5.822;2024-01-11T06:42:52;-6.50;99.90
24452;DHT22;13350;50.984;5.822;2024-01-11T06:45:19;-6.60;99.90
24452;DHT22;13350;50.984;5.822;2024-01-11T06:47:46;-6.60;99.90
24452;DHT22;13350;50.984;5.822;2024-01-11T06:50:14;-6.50;99.90
24452;DHT22;13350;50.984;5.822;2024-01-11T06:52:41;-6.40;99.90
24452;DHT22;13350;50.984;5.822;2024-01-11T06:55:08;-6.40;99.90
24452;DHT22;13350;50.984;5.822;2024-01-11T06:57:36;-6.50;99.90
24452;DHT22;13350;50.984;5.822;2024-01-11T07:00:05;-6.60;99.90
24452;DHT22;13350;50.984;5.822;2024-01-11T07:02:33;-6.50;99.90
24452;DHT22;13350;50.984;5.822;2024-01-11T07:04:59;-6.50;99.90
24452;DHT22;13350;50.984;5.822;2024-01-11T07:07:26;-6.40;99.90
24452;DHT22;13350;50.984;5.822;2024-01-11T07:09:53;-6.40;99.90
24452;DHT22;13350;50.984;5.822;2024-01-11T07:12:21;-6.40;99.90
24452;DHT22;13350;50.984;5.822;2024-01-11T07:14:48;-6.30;99.90
24452;DHT22;13350;50.984;5.822;2024-01-11T07:17:16;-6.30;99.90
24452;DHT22;13350;50.984;5.822;2024-01-11T07:19:43;-6.30;99.90
24452;DHT22;13350;50.984;5.822;2024-01-11T07:22:10;-6.30;99.90
24452;DHT22;13350;50.984;5.822;2024-01-11T07:24:37;-6.40;99.90
24452;DHT22;13350;50.984;5.822;2024-01-11T07:27:05;-6.50;99.90
24452;DHT22;13350;50.984;5.822;2024-01-11T07:29:32;-6.50;99.90
24452;DHT22;13350;50.984;5.822;2024-01-11T07:31:59;-6.60;99.90
24452;DHT22;13350;50.984;5.822;2024-01-11T07:34:28;-6.60;99.90
24452;DHT22;13350;50.984;5.822;2024-01-11T07:36:55;-6.70;99.90
24452;DHT22;13350;50.984;5.822;2024-01-11T07:39:22;-6.70;99.90
24452;DHT22;13350;50.984;5.822;2024-01-11T07:41:50;-6.80;99.90
24452;DHT22;13350;50.984;5.822;2024-01-11T07:44:16;-6.70;99.90
24452;DHT22;13350;50.984;5.822;2024-01-11T07:46:44;-6.80;99.90
24452;DHT22;13350;50.984;5.822;2024-01-11T07:49:11;-6.80;99.90
24452;DHT22;13350;50.984;5.822;2024-01-11T07:51:39;-6.90;99.90
24452;DHT22;13350;50.984;5.822;2024-01-11T07:54:06;-6.90;99.90
24452;DHT22;13350;50.984;5.822;2024-01-11T07:56:33;-6.90;99.90
24452;DHT22;13350;50.984;5.822;2024-01-11T07:59:01;-6.80;99.90
24452;DHT22;13350;50.984;5.822;2024-01-11T08:01:28;-6.80;99.90
24452;DHT22;13350;50.984;5.822;2024-01-11T08:03:58;-6.70;99.90
24452;DHT22;13350;50.984;5.822;2024-01-11T08:06:28;-6.60;99.90
24452;DHT22;13350;50.984;5.822;2024-01-11T08:08:56;-6.60;99.90
24452;DHT22;13350;50.984;5.822;2024-01-11T08:11:23;-6.60;99.90
24452;DHT22;13350;50.984;5.822;2024-01-11T08:13:50;-6.60;99.90
24452;DHT22;13350;50.984;5.822;2024-01-11T08:16:20;-6.40;99.90
24452;DHT22;13350;50.984;5.822;2024-01-11T08:18:47;-6.30;99.90
24452;DHT22;13350;50.984;5.822;2024-01-11T08:21:14;-5.90;99.90
24452;DHT22;13350;50.984;5.822;2024-01-11T08:23:41;-5.80;99.90
24452;DHT22;13350;50.984;5.822;2024-01-11T08:26:12;-5.70;99.90
24452;DHT22;13350;50.984;5.822;2024-01-11T08:28:40;-5.60;99.90
24452;DHT22;13350;50.984;5.822;2024-01-11T08:31:07;-5.60;99.90
24452;DHT22;13350;50.984;5.822;2024-01-11T08:33:34;-5.60;99.90
24452;DHT22;13350;50.984;5.822;2024-01-11T08:36:02;-5.60;99.90
24452;DHT22;13350;50.984;5.822;2024-01-11T08:38:29;-5.60;99.90
24452;DHT22;13350;50.984;5.822;2024-01-11T08:40:56;-5.60;99.90
24452;DHT22;13350;50.984;5.822;2024-01-11T08:43:25;-5.60;99.90
24452;DHT22;13350;50.984;5.822;2024-01-11T08:45:52;-5.60;99.90
24452;DHT22;13350;50.984;5.822;2024-01-11T08:48:19;-5.50;99.90
24452;DHT22;13350;50.984;5.822;2024-01-11T08:50:46;-5.40;99.90
24452;DHT22;13350;50.984;5.822;2024-01-11T08:53:13;-5.40;99.90
24452;DHT22;13350;50.984;5.822;2024-01-11T08:55:41;-5.30;99.90
24452;DHT22;13350;50.984;5.822;2024-01-11T08:58:08;-5.20;99.90
24452;DHT22;13350;50.984;5.822;2024-01-11T09:00:37;-5.00;99.90
24452;DHT22;13350;50.984;5.822;2024-01-11T09:03:04;-4.70;99.90
24452;DHT22;13350;50.984;5.822;2024-01-11T09:05:31;-4.50;99.90
24452;DHT22;13350;50.984;5.822;2024-01-11T09:07:58;-4.30;99.90
24452;DHT22;13350;50.984;5.822;2024-01-11T09:10:25;-3.70;99.90
24452;DHT22;13350;50.984;5.822;2024-01-11T09:12:53;-3.10;99.90
24452;DHT22;13350;50.984;5.822;2024-01-11T09:15:20;-2.50;99.90
24452;DHT22;13350;50.984;5.822;2024-01-11T09:17:49;-2.40;99.90
24452;DHT22;13350;50.984;5.822;2024-01-11T09:20:16;-2.40;99.90
24452;DHT22;13350;50.984;5.822;2024-01-11T09:22:44;-2.30;99.90
24452;DHT22;13350;50.984;5.822;2024-01-11T09:25:11;-2.30;99.90
24452;DHT22;13350;50.984;5.822;2024-01-11T09:27:38;-2.60;99.90
24452;DHT22;13350;50.984;5.822;2024-01-11T09:30:06;-2.60;99.90
24452;DHT22;13350;50.984;5.822;2024-01-11T09:32:33;-2.10;99.90
24452;DHT22;13350;50.984;5.822;2024-01-11T09:35:03;-1.80;99.90
24452;DHT22;13350;50.984;5.822;2024-01-11T09:37:31;-1.70;99.90
24452;DHT22;13350;50.984;5.822;2024-01-11T09:39:58;-1.50;99.90
24452;DHT22;13350;50.984;5.822;2024-01-11T09:42:26;-1.30;99.90
24452;DHT22;13350;50.984;5.822;2024-01-11T09:44:53;-1.10;99.90
24452;DHT22;13350;50.984;5.822;2024-01-11T09:47:21;-1.00;99.90
24452;DHT22;13350;50.984;5.822;2024-01-11T09:49:48;-0.90;99.90
24452;DHT22;13350;50.984;5.822;2024-01-11T09:52:17;-1.10;99.90
24452;DHT22;13350;50.984;5.822;2024-01-11T09:54:45;-1.10;99.90
24452;DHT22;13350;50.984;5.822;2024-01-11T09:57:12;-1.20;99.90
24452;DHT22;13350;50.984;5.822;2024-01-11T09:59:42;-1.20;99.90
24452;DHT22;13350;50.984;5.822;2024-01-11T10:02:09;-1.10;99.90
24452;DHT22;13350;50.984;5.822;2024-01-11T10:04:36;-0.80;99.90
24452;DHT22;13350;50.984;5.822;2024-01-11T10:07:03;-0.60;99.90
24452;DHT22;13350;50.984;5.822;2024-01-11T10:09:32;-0.30;99.90
24452;DHT22;13350;50.984;5.822;2024-01-11T10:12:00;-0.40;99.90
24452;DHT22;13350;50.984;5.822;2024-01-11T10:14:27;-0.20;99.90
24452;DHT22;13350;50.984;5.822;2024-01-11T10:16:54;-0.30;99.90
24452;DHT22;13350;50.984;5.822;2024-01-11T10:19:21;-0.40;99.90
24452;DHT22;13350;50.984;5.822;2024-01-11T10:21:48;-0.60;99.90
24452;DHT22;13350;50.984;5.822;2024-01-11T10:24:18;-0.60;99.90
24452;DHT22;13350;50.984;5.822;2024-01-11T10:26:47;-0.40;99.90
24452;DHT22;13350;50.984;5.822;2024-01-11T10:29:14;-0.10;99.90
24452;DHT22;13350;50.984;5.822;2024-01-11T10:31:43;0.10;99.90
24452;DHT22;13350;50.984;5.822;2024-01-11T10:34:10;0.10;99.90
24452;DHT22;13350;50.984;5.822;2024-01-11T10:36:37;-0.10;99.90
24452;DHT22;13350;50.984;5.822;2024-01-11T10:39:04;-0.30;99.90
24452;DHT22;13350;50.984;5.822;2024-01-11T10:41:32;-0.30;99.90
24452;DHT22;13350;50.984;5.822;2024-01-11T10:44:01;-0.40;99.90
24452;DHT22;13350;50.984;5.822;2024-01-11T10:46:29;-0.30;99.90
24452;DHT22;13350;50.984;5.822;2024-01-11T10:49:00;0.00;99.90
24452;DHT22;13350;50.984;5.822;2024-01-11T10:51:32;0.30;99.90
24452;DHT22;13350;50.984;5.822;2024-01-11T10:53:59;0.50;99.90
24452;DHT22;13350;50.984;5.822;2024-01-11T10:56:27;0.50;99.90
24452;DHT22;13350;50.984;5.822;2024-01-11T10:58:55;0.50;99.90
24452;DHT22;13350;50.984;5.822;2024-01-11T11:01:25;0.70;99.90
24452;DHT22;13350;50.984;5.822;2024-01-11T11:03:52;1.00;99.90
24452;DHT22;13350;50.984;5.822;2024-01-11T11:06:21;1.30;99.90
24452;DHT22;13350;50.984;5.822;2024-01-11T11:08:49;1.10;99.90
24452;DHT22;13350;50.984;5.822;2024-01-11T11:11:17;1.30;99.90
24452;DHT22;13350;50.984;5.822;2024-01-11T11:13:46;1.30;99.90
24452;DHT22;13350;50.984;5.822;2024-01-11T11:16:14;1.00;99.90
24452;DHT22;13350;50.984;5.822;2024-01-11T11:18:42;0.90;99.90
24452;DHT22;13350;50.984;5.822;2024-01-11T11:21:10;0.90;99.90
24452;DHT22;13350;50.984;5.822;2024-01-11T11:23:37;0.50;99.90
24452;DHT22;13350;50.984;5.822;2024-01-11T11:26:05;0.50;99.90
24452;DHT22;13350;50.984;5.822;2024-01-11T11:28:32;0.20;99.90
24452;DHT22;13350;50.984;5.822;2024-01-11T11:31:00;0.40;99.90
24452;DHT22;13350;50.984;5.822;2024-01-11T11:33:29;0.90;99.90
24452;DHT22;13350;50.984;5.822;2024-01-11T11:35:58;1.20;99.90
24452;DHT22;13350;50.984;5.822;2024-01-11T11:38:25;1.30;99.90
24452;DHT22;13350;50.984;5.822;2024-01-11T11:40:54;1.40;99.90
24452;DHT22;13350;50.984;5.822;2024-01-11T11:43:22;1.30;99.90
24452;DHT22;13350;50.984;5.822;2024-01-11T11:45:49;1.20;99.90
24452;DHT22;13350;50.984;5.822;2024-01-11T11:51:12;1.60;99.90
24452;DHT22;13350;50.984;5.822;2024-01-11T11:53:40;1.60;99.90
24452;DHT22;13350;50.984;5.822;2024-01-11T11:56:07;1.70;99.90
24452;DHT22;13350;50.984;5.822;2024-01-11T11:58:35;1.80;99.90
24452;DHT22;13350;50.984;5.822;2024-01-11T12:01:02;1.70;99.90
24452;DHT22;13350;50.984;5.822;2024-01-11T12:03:30;1.50;99.90
24452;DHT22;13350;50.984;5.822;2024-01-11T12:05:58;1.70;99.90
24452;DHT22;13350;50.984;5.822;2024-01-11T12:08:26;2.00;99.90
24452;DHT22;13350;50.984;5.822;2024-01-11T12:10:53;2.10;99.90
24452;DHT22;13350;50.984;5.822;2024-01-11T12:13:20;1.80;99.90
24452;DHT22;13350;50.984;5.822;2024-01-11T12:15:47;2.00;99.90
24452;DHT22;13350;50.984;5.822;2024-01-11T12:18:14;2.40;99.90
24452;DHT22;13350;50.984;5.822;2024-01-11T12:20:41;2.70;99.90
24452;DHT22;13350;50.984;5.822;2024-01-11T12:23:08;2.20;99.90
24452;DHT22;13350;50.984;5.822;2024-01-11T12:25:37;2.10;99.90
24452;DHT22;13350;50.984;5.822;2024-01-11T12:28:05;2.20;99.90
24452;DHT22;13350;50.984;5.822;2024-01-11T12:30:32;1.90;99.90
24452;DHT22;13350;50.984;5.822;2024-01-11T12:32:59;1.80;99.90
24452;DHT22;13350;50.984;5.822;2024-01-11T12:35:27;2.20;99.90
24452;DHT22;13350;50.984;5.822;2024-01-11T12:37:54;2.40;99.90
24452;DHT22;13350;50.984;5.822;2024-01-11T12:40:22;2.50;99.90
24452;DHT22;13350;50.984;5.822;2024-01-11T12:42:50;2.50;99.90
24452;DHT22;13350;50.984;5.822;2024-01-11T12:45:17;2.20;99.90
24452;DHT22;13350;50.984;5.822;2024-01-11T12:47:45;2.20;99.90
24452;DHT22;13350;50.984;5.822;2024-01-11T12:50:12;2.20;99.90
24452;DHT22;13350;50.984;5.822;2024-01-11T12:52:39;2.40;99.90
24452;DHT22;13350;50.984;5.822;2024-01-11T12:55:07;2.50;99.90
24452;DHT22;13350;50.984;5.822;2024-01-11T12:57:34;2.60;99.90
24452;DHT22;13350;50.984;5.822;2024-01-11T13:00:10;2.70;99.90
24452;DHT22;13350;50.984;5.822;2024-01-11T13:02:37;2.70;99.90
24452;DHT22;13350;50.984;5.822;2024-01-11T13:05:05;3.00;99.90
24452;DHT22;13350;50.984;5.822;2024-01-11T13:07:32;2.80;99.90
24452;DHT22;13350;50.984;5.822;2024-01-11T13:10:00;2.80;99.90
24452;DHT22;13350;50.984;5.822;2024-01-11T13:12:29;2.80;99.90
24452;DHT22;13350;50.984;5.822;2024-01-11T13:14:56;2.20;99.90
24452;DHT22;13350;50.984;5.822;2024-01-11T13:17:24;1.60;99.90
24452;DHT22;13350;50.984;5.822;2024-01-11T13:19:53;1.40;99.90
24452;DHT22;13350;50.984;5.822;2024-01-11T13:22:20;1.80;99.90
24452;DHT22;13350;50.984;5.822;2024-01-11T13:24:46;2.20;99.90
24452;DHT22;13350;50.984;5.822;2024-01-11T13:27:14;2.50;99.90
24452;DHT22;13350;50.984;5.822;2024-01-11T13:29:41;2.50;99.90
24452;DHT22;13350;50.984;5.822;2024-01-11T13:32:08;1.70;99.90
24452;DHT22;13350;50.984;5.822;2024-01-11T13:34:37;1.30;99.90
24452;DHT22;13350;50.984;5.822;2024-01-11T13:37:04;1.10;99.90
24452;DHT22;13350;50.984;5.822;2024-01-11T13:39:31;0.90;99.90
24452;DHT22;13350;50.984;5.822;2024-01-11T13:41:58;1.00;99.90
24452;DHT22;13350;50.984;5.822;2024-01-11T13:44:25;1.20;99.90
24452;DHT22;13350;50.984;5.822;2024-01-11T13:46:52;1.30;99.90
24452;DHT22;13350;50.984;5.822;2024-01-11T13:49:19;1.40;99.90
24452;DHT22;13350;50.984;5.822;2024-01-11T13:51:49;1.70;99.90
24452;DHT22;13350;50.984;5.822;2024-01-11T13:54:16;1.70;99.90
24452;DHT22;13350;50.984;5.822;2024-01-11T13:56:43;1.30;99.90
24452;DHT22;13350;50.984;5.822;2024-01-11T13:59:10;1.20;99.90
24452;DHT22;13350;50.984;5.822;2024-01-11T14:01:37;1.10;99.90
24452;DHT22;13350;50.984;5.822;2024-01-11T14:04:04;1.10;99.90
24452;DHT22;13350;50.984;5.822;2024-01-11T14:06:32;1.20;99.90
24452;DHT22;13350;50.984;5.822;2024-01-11T14:09:01;1.30;99.90
24452;DHT22;13350;50.984;5.822;2024-01-11T14:11:30;1.50;99.90
24452;DHT22;13350;50.984;5.822;2024-01-11T14:13:57;1.40;99.90
24452;DHT22;13350;50.984;5.822;2024-01-11T14:16:24;1.30;99.90
24452;DHT22;13350;50.984;5.822;2024-01-11T14:18:51;1.30;99.90
24452;DHT22;13350;50.984;5.822;2024-01-11T14:21:18;1.30;99.90
24452;DHT22;13350;50.984;5.822;2024-01-11T14:23:44;1.50;99.90
24452;DHT22;13350;50.984;5.822;2024-01-11T14:26:13;1.30;99.90
24452;DHT22;13350;50.984;5.822;2024-01-11T14:28:40;1.30;99.90
24452;DHT22;13350;50.984;5.822;2024-01-11T14:31:08;1.10;99.90
24452;DHT22;13350;50.984;5.822;2024-01-11T14:33:36;1.10;99.90
24452;DHT22;13350;50.984;5.822;2024-01-11T14:36:03;1.00;99.90
24452;DHT22;13350;50.984;5.822;2024-01-11T14:38:30;0.90;99.90
24452;DHT22;13350;50.984;5.822;2024-01-11T14:40:57;1.00;99.90
24452;DHT22;13350;50.984;5.822;2024-01-11T14:43:25;1.00;99.90
24452;DHT22;13350;50.984;5.822;2024-01-11T14:45:52;0.90;99.90
24452;DHT22;13350;50.984;5.822;2024-01-11T14:48:19;0.80;99.90
24452;DHT22;13350;50.984;5.822;2024-01-11T14:50:47;0.90;99.90
24452;DHT22;13350;50.984;5.822;2024-01-11T14:53:14;1.00;99.90
24452;DHT22;13350;50.984;5.822;2024-01-11T14:55:40;1.00;99.90
24452;DHT22;13350;50.984;5.822;2024-01-11T14:58:08;1.00;99.90
24452;DHT22;13350;50.984;5.822;2024-01-11T15:00:37;0.90;99.90
24452;DHT22;13350;50.984;5.822;2024-01-11T15:03:04;0.80;99.90
24452;DHT22;13350;50.984;5.822;2024-01-11T15:05:32;0.80;99.90
24452;DHT22;13350;50.984;5.822;2024-01-11T15:07:59;0.70;99.90
24452;DHT22;13350;50.984;5.822;2024-01-11T15:10:27;0.70;99.90
24452;DHT22;13350;50.984;5.822;2024-01-11T15:12:55;0.70;99.90
24452;DHT22;13350;50.984;5.822;2024-01-11T15:15:23;0.60;99.90
24452;DHT22;13350;50.984;5.822;2024-01-11T15:17:51;0.50;99.90
24452;DHT22;13350;50.984;5.822;2024-01-11T15:20:18;0.50;99.90
24452;DHT22;13350;50.984;5.822;2024-01-11T15:22:47;0.40;99.90
24452;DHT22;13350;50.984;5.822;2024-01-11T15:25:14;0.30;99.90
24452;DHT22;13350;50.984;5.822;2024-01-11T15:27:42;0.10;99.90
24452;DHT22;13350;50.984;5.822;2024-01-11T15:30:09;-0.10;99.90
24452;DHT22;13350;50.984;5.822;2024-01-11T15:32:37;-0.30;99.90
24452;DHT22;13350;50.984;5.822;2024-01-11T15:35:06;-0.40;99.90
24452;DHT22;13350;50.984;5.822;2024-01-11T15:37:33;-0.50;99.90
24452;DHT22;13350;50.984;5.822;2024-01-11T15:40:01;-0.60;99.90